Time;durP1;ratioP1;P1;durP2;ratioP2;P2;SDS_P1;SDS_P2;PMS_P1;PMS_P2;Temp;Humidity;BMP_temperature;BMP_pressure;BME280_temperature;BME280_humidity;BME280_pressure;Samples;Min_cycle;Max_cycle;Signal;HPM_P1;HPM_P2
2023/10/27 00:00:31;;;;;;;0.10;0.10;;;;;;;;;;4889273;29;20035;-87
2023/10/27 00:02:57;;;;;;;0.10;0.10;;;;;;;;;;4904748;29;20047;-87
2023/10/27 00:05:23;;;;;;;0.20;0.20;;;;;;;;;;4920528;29;20040;-87
2023/10/27 00:07:49;;;;;;;0.10;0.10;;;;;;;;;;4889051;29;20051;-87
2023/10/27 00:10:15;;;;;;;0.10;0.10;;;;;;;;;;4920189;29;20040;-87
2023/10/27 00:12:41;;;;;;;0.15;0.15;;;;;;;;;;4904652;29;20055;-87
2023/10/27 00:15:07;;;;;;;0.43;0.43;;;;;;;;;;4904698;29;20052;-87
2023/10/27 00:17:33;;;;;;;0.10;0.10;;;;;;;;;;4919818;29;20066;-87
2023/10/27 00:19:59;;;;;;;0.10;0.10;;;;;;;;;;4904347;29;20043;-87
2023/10/27 00:22:25;;;;;;;0.10;0.10;;;;;;;;;;4889098;29;20047;-87
2023/10/27 00:24:51;;;;;;;0.10;0.10;;;;;;;;;;4920055;29;20054;-87
2023/10/27 00:27:18;;;;;;;0.10;0.10;;;;;;;;;;4919925;29;20492;-87
2023/10/27 00:29:44;;;;;;;0.10;0.10;;;;;;;;;;4919902;29;20559;-87
2023/10/27 00:32:10;;;;;;;0.10;0.10;;;;;;;;;;4919893;29;20043;-87
2023/10/27 00:34:36;;;;;;;0.10;0.10;;;;;;;;;;4904082;29;20123;-87
2023/10/27 00:37:02;;;;;;;0.10;0.10;;;;;;;;;;4904176;29;20466;-87
2023/10/27 00:39:28;;;;;;;0.10;0.10;;;;;;;;;;4904104;29;20046;-87
2023/10/27 00:41:54;;;;;;;0.20;0.20;;;;;;;;;;4888760;29;20046;-87
2023/10/27 00:44:20;;;;;;;0.10;0.10;;;;;;;;;;4904318;29;20460;-87
2023/10/27 00:46:46;;;;;;;0.10;0.10;;;;;;;;;;4903975;29;20044;-87
2023/10/27 00:49:12;;;;;;;0.10;0.10;;;;;;;;;;4903760;29;20043;-87
2023/10/27 00:51:38;;;;;;;0.10;0.10;;;;;;;;;;4904141;29;20393;-87
2023/10/27 00:54:05;;;;;;;0.20;0.20;;;;;;;;;;4903978;29;20040;-87
2023/10/27 00:56:32;;;;;;;0.10;0.10;;;;;;;;;;4888488;29;20044;-86
2023/10/27 00:58:58;;;;;;;0.10;0.10;;;;;;;;;;4919393;29;20040;-87
2023/10/27 01:01:24;;;;;;;0.10;0.10;;;;;;;;;;4903973;29;20432;-87
2023/10/27 01:03:50;;;;;;;0.10;0.10;;;;;;;;;;4887999;29;20055;-87
2023/10/27 01:06:16;;;;;;;0.30;0.30;;;;;;;;;;4888343;29;20046;-87
2023/10/27 01:08:42;;;;;;;0.10;0.10;;;;;;;;;;4919179;29;20046;-87
2023/10/27 01:11:08;;;;;;;0.10;0.10;;;;;;;;;;4903501;29;20051;-87
2023/10/27 01:13:34;;;;;;;0.13;0.13;;;;;;;;;;4888029;29;20497;-87
2023/10/27 01:16:00;;;;;;;0.10;0.10;;;;;;;;;;4888056;29;20204;-87
2023/10/27 01:18:26;;;;;;;0.10;0.10;;;;;;;;;;4918875;29;20568;-87
2023/10/27 01:20:52;;;;;;;0.10;0.10;;;;;;;;;;4902653;29;20044;-87
2023/10/27 01:23:18;;;;;;;0.10;0.10;;;;;;;;;;4903221;29;20067;-87
2023/10/27 01:25:44;;;;;;;0.10;0.10;;;;;;;;;;4919178;29;20130;-87
2023/10/27 01:28:10;;;;;;;0.10;0.10;;;;;;;;;;4903259;29;20489;-87
2023/10/27 01:30:36;;;;;;;0.10;0.10;;;;;;;;;;4903516;29;20044;-87
2023/10/27 01:33:02;;;;;;;0.10;0.10;;;;;;;;;;4903133;29;20051;-87
2023/10/27 01:35:28;;;;;;;0.10;0.10;;;;;;;;;;4887817;29;20048;-87
2023/10/27 01:37:54;;;;;;;0.20;0.20;;;;;;;;;;4902992;29;20512;-87
2023/10/27 01:40:20;;;;;;;0.10;0.10;;;;;;;;;;4903055;29;20035;-87
2023/10/27 01:42:46;;;;;;;0.10;0.10;;;;;;;;;;4887440;29;20067;-87
2023/10/27 01:45:14;;;;;;;0.20;0.20;;;;;;;;;;4919060;29;20191;-87
2023/10/27 01:47:40;;;;;;;0.10;0.10;;;;;;;;;;4902874;29;20134;-87
2023/10/27 01:50:09;;;;;;;0.10;0.10;;;;;;;;;;4918586;29;20183;-87
2023/10/27 01:52:35;;;;;;;0.28;0.28;;;;;;;;;;4887399;29;20130;-87
2023/10/27 01:55:01;;;;;;;0.10;0.10;;;;;;;;;;4918712;29;20126;-87
2023/10/27 01:57:27;;;;;;;0.10;0.10;;;;;;;;;;4902680;29;20059;-87
2023/10/27 01:59:53;;;;;;;0.20;0.20;;;;;;;;;;4902629;29;20043;-87
2023/10/27 02:02:19;;;;;;;0.10;0.10;;;;;;;;;;4902643;29;20035;-87
2023/10/27 02:04:45;;;;;;;0.10;0.10;;;;;;;;;;4918493;29;20126;-87
2023/10/27 02:07:12;;;;;;;0.10;0.10;;;;;;;;;;4918221;29;20048;-87
2023/10/27 02:09:39;;;;;;;0.10;0.10;;;;;;;;;;4887343;29;20532;-87
2023/10/27 02:12:07;;;;;;;0.10;0.10;;;;;;;;;;4887176;29;20054;-87
2023/10/27 02:14:33;;;;;;;0.17;0.17;;;;;;;;;;4887278;29;20103;-87
2023/10/27 02:17:01;;;;;;;0.30;0.30;;;;;;;;;;4887288;29;20139;-87
2023/10/27 02:19:27;;;;;;;0.10;0.10;;;;;;;;;;4917991;29;20086;-87
2023/10/27 02:21:53;;;;;;;0.10;0.10;;;;;;;;;;4886833;29;20079;-85
2023/10/27 02:24:19;;;;;;;0.10;0.10;;;;;;;;;;4917914;29;20401;-87
2023/10/27 02:26:45;;;;;;;0.47;0.47;;;;;;;;;;4902357;29;20040;-87
2023/10/27 02:29:11;;;;;;;0.63;0.20;;;;;;;;;;4886843;29;20122;-86
2023/10/27 02:31:37;;;;;;;1.10;0.30;;;;;;;;;;4887135;29;20436;-87
2023/10/27 02:34:03;;;;;;;0.10;0.10;;;;;;;;;;4902422;29;20441;-87
2023/10/27 02:36:29;;;;;;;0.10;0.10;;;;;;;;;;4917857;29;20119;-87
2023/10/27 02:38:55;;;;;;;0.10;0.10;;;;;;;;;;4886575;29;20082;-87
2023/10/27 02:41:21;;;;;;;0.10;0.10;;;;;;;;;;4886702;29;20039;-87
2023/10/27 02:43:47;;;;;;;0.10;0.10;;;;;;;;;;4902032;29;20047;-87
2023/10/27 02:46:13;;;;;;;0.10;0.10;;;;;;;;;;4917780;29;20408;-87
2023/10/27 02:48:42;;;;;;;0.10;0.10;;;;;;;;;;4902539;29;20059;-87
2023/10/27 02:51:08;;;;;;;0.10;0.10;;;;;;;;;;4918285;29;20435;-87
2023/10/27 02:53:34;;;;;;;0.10;0.10;;;;;;;;;;4902021;29;20044;-87
2023/10/27 02:56:07;;;;;;;0.20;0.20;;;;;;;;;;4886780;29;20054;-87
2023/10/27 02:58:33;;;;;;;0.10;0.10;;;;;;;;;;4901998;29;20051;-87
2023/10/27 03:00:59;;;;;;;0.10;0.10;;;;;;;;;;4886362;29;20044;-87
2023/10/27 03:03:27;;;;;;;0.10;0.10;;;;;;;;;;4917762;29;20050;-87
2023/10/27 03:05:53;;;;;;;0.10;0.10;;;;;;;;;;4886890;29;20050;-87
2023/10/27 03:08:19;;;;;;;0.40;0.40;;;;;;;;;;4901901;29;20085;-87
2023/10/27 03:10:45;;;;;;;0.20;0.20;;;;;;;;;;4901818;29;20063;-88
2023/10/27 03:13:11;;;;;;;0.10;0.10;;;;;;;;;;4901977;29;20176;-87
2023/10/27 03:15:37;;;;;;;0.10;0.10;;;;;;;;;;4901845;29;20039;-87
2023/10/27 03:18:03;;;;;;;3.10;0.30;;;;;;;;;;4886052;29;20052;-87
2023/10/27 03:20:29;;;;;;;0.10;0.10;;;;;;;;;;4901770;29;20056;-87
2023/10/27 03:22:55;;;;;;;0.15;0.15;;;;;;;;;;4886224;29;20048;-87
2023/10/27 03:25:21;;;;;;;0.10;0.10;;;;;;;;;;4901815;29;20158;-88
2023/10/27 03:27:47;;;;;;;0.10;0.10;;;;;;;;;;4901730;29;20488;-87
2023/10/27 03:30:13;;;;;;;0.20;0.20;;;;;;;;;;4917448;29;20083;-87
2023/10/27 03:32:39;;;;;;;0.10;0.10;;;;;;;;;;4901850;29;20043;-87
2023/10/27 03:35:07;;;;;;;0.10;0.10;;;;;;;;;;4917364;29;20102;-87
2023/10/27 03:37:33;;;;;;;0.10;0.10;;;;;;;;;;4901684;29;20048;-87
2023/10/27 03:39:59;;;;;;;0.10;0.10;;;;;;;;;;4901463;29;20035;-87
2023/10/27 03:42:25;;;;;;;0.10;0.10;;;;;;;;;;4901823;29;20059;-86
2023/10/27 03:44:51;;;;;;;0.30;0.30;;;;;;;;;;4888205;29;20043;-87
2023/10/27 03:47:17;;;;;;;0.10;0.10;;;;;;;;;;4920811;29;20130;-86
2023/10/27 03:49:43;;;;;;;0.10;0.10;;;;;;;;;;4920829;29;20042;-87
2023/10/27 03:52:09;;;;;;;0.17;0.17;;;;;;;;;;4889405;29;20501;-87
2023/10/27 03:54:36;;;;;;;0.10;0.10;;;;;;;;;;4920549;29;20131;-87
2023/10/27 03:57:02;;;;;;;0.13;0.13;;;;;;;;;;4920425;29;20047;-87
2023/10/27 03:59:28;;;;;;;0.38;0.38;;;;;;;;;;4904698;29;20071;-87
2023/10/27 04:01:54;;;;;;;0.20;0.20;;;;;;;;;;4904662;29;20508;-88
2023/10/27 04:04:20;;;;;;;0.20;0.20;;;;;;;;;;4904680;29;20046;-87
2023/10/27 04:06:46;;;;;;;0.10;0.10;;;;;;;;;;4920324;29;20132;-86
2023/10/27 04:09:12;;;;;;;0.10;0.10;;;;;;;;;;4904516;29;20043;-87
2023/10/27 04:11:38;;;;;;;0.10;0.10;;;;;;;;;;4904670;29;20044;-87
2023/10/27 04:14:05;;;;;;;0.10;0.10;;;;;;;;;;4904786;29;20530;-87
2023/10/27 04:16:31;;;;;;;0.28;0.20;;;;;;;;;;4904517;29;20063;-87
2023/10/27 04:18:57;;;;;;;0.10;0.10;;;;;;;;;;4904413;29;20106;-88
2023/10/27 04:21:23;;;;;;;0.10;0.10;;;;;;;;;;4888934;29;20426;-87
2023/10/27 04:23:49;;;;;;;0.10;0.10;;;;;;;;;;4919973;29;20048;-87
2023/10/27 04:26:15;;;;;;;0.10;0.10;;;;;;;;;;4904407;29;20374;-87
2023/10/27 04:28:42;;;;;;;0.10;0.10;;;;;;;;;;4889000;29;20138;-88
2023/10/27 04:31:08;;;;;;;0.10;0.10;;;;;;;;;;4904428;29;20418;-87
2023/10/27 04:33:37;;;;;;;0.10;0.10;;;;;;;;;;4888671;29;20039;-87
2023/10/27 04:36:04;;;;;;;0.25;0.25;;;;;;;;;;4904601;29;20160;-87
2023/10/27 04:38:30;;;;;;;0.20;0.20;;;;;;;;;;4919646;29;20051;-87
2023/10/27 04:40:56;;;;;;;0.20;0.20;;;;;;;;;;4888549;29;20079;-87
2023/10/27 04:43:22;;;;;;;1.75;0.30;;;;;;;;;;4904130;29;20075;-87
2023/10/27 04:45:48;;;;;;;0.10;0.10;;;;;;;;;;4904072;29;20075;-87
2023/10/27 04:48:14;;;;;;;0.10;0.10;;;;;;;;;;4904200;29;20051;-87
2023/10/27 04:50:41;;;;;;;0.25;0.25;;;;;;;;;;4903884;29;20090;-87
2023/10/27 04:53:07;;;;;;;0.20;0.20;;;;;;;;;;4904001;29;20592;-87
2023/10/27 04:55:33;;;;;;;0.10;0.10;;;;;;;;;;4918517;29;20039;-87
2023/10/27 04:57:59;;;;;;;0.20;0.20;;;;;;;;;;4903695;29;20083;-87
2023/10/27 05:00:25;;;;;;;0.20;0.20;;;;;;;;;;4903963;29;20082;-88
2023/10/27 05:02:53;;;;;;;0.10;0.10;;;;;;;;;;4888275;29;20039;-87
2023/10/27 05:05:20;;;;;;;0.10;0.10;;;;;;;;;;4919413;29;20047;-87
2023/10/27 05:07:49;;;;;;;0.10;0.10;;;;;;;;;;4903711;29;20496;-87
2023/10/27 05:10:15;;;;;;;0.55;0.55;;;;;;;;;;4919562;29;20043;-87
2023/10/27 05:12:41;;;;;;;0.10;0.10;;;;;;;;;;4919279;29;20050;-87
2023/10/27 05:15:07;;;;;;;0.10;0.10;;;;;;;;;;4903703;29;20046;-88
2023/10/27 05:17:36;;;;;;;0.10;0.10;;;;;;;;;;4903259;29;20063;-87
2023/10/27 05:20:03;;;;;;;0.10;0.10;;;;;;;;;;4918779;29;20501;-87
2023/10/27 05:22:30;;;;;;;0.10;0.10;;;;;;;;;;4903317;29;20047;-87
2023/10/27 05:24:57;;;;;;;0.20;0.20;;;;;;;;;;4903418;29;20043;-87
2023/10/27 05:27:24;;;;;;;0.10;0.10;;;;;;;;;;4903380;29;20044;-88
2023/10/27 05:29:50;;;;;;;0.10;0.10;;;;;;;;;;4903230;29;20047;-88
2023/10/27 05:32:17;;;;;;;0.10;0.10;;;;;;;;;;4903186;29;20048;-87
2023/10/27 05:34:44;;;;;;;0.10;0.10;;;;;;;;;;4918911;29;20048;-87
2023/10/27 05:37:10;;;;;;;0.10;0.10;;;;;;;;;;4903063;29;20058;-87
2023/10/27 05:39:36;;;;;;;0.10;0.10;;;;;;;;;;4918638;29;20475;-86
2023/10/27 05:42:02;;;;;;;0.10;0.10;;;;;;;;;;4887468;29;20044;-87
2023/10/27 05:44:28;;;;;;;0.20;0.20;;;;;;;;;;4902909;29;20044;-86
2023/10/27 05:46:54;;;;;;;0.10;0.10;;;;;;;;;;4887355;29;20556;-86
2023/10/27 05:49:20;;;;;;;0.52;0.40;;;;;;;;;;4902849;29;20058;-87
2023/10/27 05:51:47;;;;;;;0.20;0.20;;;;;;;;;;4918423;29;20126;-87
2023/10/27 05:54:13;;;;;;;0.10;0.10;;;;;;;;;;4903114;29;20051;-87
2023/10/27 05:56:39;;;;;;;0.10;0.10;;;;;;;;;;4918561;29;20040;-87
2023/10/27 05:59:06;;;;;;;0.15;0.15;;;;;;;;;;4918409;29;20047;-92
2023/10/27 06:01:33;;;;;;;0.10;0.10;;;;;;;;;;4887782;29;20047;-88
2023/10/27 06:03:59;;;;;;;0.10;0.10;;;;;;;;;;4902901;29;20055;-88
2023/10/27 06:06:25;;;;;;;0.20;0.20;;;;;;;;;;4902805;29;20048;-88
2023/10/27 06:08:52;;;;;;;0.30;0.30;;;;;;;;;;4902526;29;20151;-90
2023/10/27 06:11:18;;;;;;;0.10;0.10;;;;;;;;;;4902645;29;20044;-88
2023/10/27 06:13:44;;;;;;;0.25;0.25;;;;;;;;;;4887093;29;20099;-87
2023/10/27 06:16:10;;;;;;;0.10;0.10;;;;;;;;;;4886750;29;20461;-87
2023/10/27 06:18:36;;;;;;;0.20;0.20;;;;;;;;;;4902339;29;20051;-88
2023/10/27 06:21:04;;;;;;;0.10;0.10;;;;;;;;;;4886829;29;20035;-88
2023/10/27 06:23:31;;;;;;;0.10;0.10;;;;;;;;;;4918194;29;20453;-89
2023/10/27 06:25:57;;;;;;;0.10;0.10;;;;;;;;;;4918506;29;20050;-87
2023/10/27 06:28:23;;;;;;;0.10;0.10;;;;;;;;;;4902131;29;20191;-87
2023/10/27 06:30:49;;;;;;;0.10;0.10;;;;;;;;;;4902258;29;20373;-87
2023/10/27 06:33:15;;;;;;;0.10;0.10;;;;;;;;;;4917903;29;20071;-87
2023/10/27 06:35:41;;;;;;;0.10;0.10;;;;;;;;;;4917876;29;20048;-87
2023/10/27 06:38:07;;;;;;;0.10;0.10;;;;;;;;;;4886651;29;20047;-88
2023/10/27 06:40:33;;;;;;;0.20;0.20;;;;;;;;;;4902064;29;20035;-87
2023/10/27 06:42:59;;;;;;;0.10;0.10;;;;;;;;;;4902288;29;20487;-91
2023/10/27 06:45:25;;;;;;;0.45;0.45;;;;;;;;;;4902351;29;20091;-88
2023/10/27 06:47:51;;;;;;;0.10;0.10;;;;;;;;;;4918075;29;20048;-88
2023/10/27 06:50:17;;;;;;;0.15;0.15;;;;;;;;;;4902241;29;20054;-87
2023/10/27 06:52:43;;;;;;;0.30;0.30;;;;;;;;;;4917799;29;20082;-87
2023/10/27 06:55:09;;;;;;;0.10;0.10;;;;;;;;;;4902281;29;20040;-89
2023/10/27 06:57:37;;;;;;;0.10;0.10;;;;;;;;;;4902045;29;20470;-89
2023/10/27 07:00:04;;;;;;;0.10;0.10;;;;;;;;;;4886420;29;20039;-86
2023/10/27 07:02:30;;;;;;;0.10;0.10;;;;;;;;;;4917899;29;20131;-85
2023/10/27 07:04:56;;;;;;;0.10;0.10;;;;;;;;;;4902116;29;20122;-88
2023/10/27 07:07:22;;;;;;;0.10;0.10;;;;;;;;;;4887080;29;20219;-89
2023/10/27 07:09:48;;;;;;;0.10;0.10;;;;;;;;;;4902175;29;20043;-88
2023/10/27 07:12:14;;;;;;;0.20;0.20;;;;;;;;;;4902302;29;20139;-88
2023/10/27 07:14:40;;;;;;;0.20;0.20;;;;;;;;;;4886262;29;20047;-87
2023/10/27 07:17:06;;;;;;;0.10;0.10;;;;;;;;;;4934389;29;20067;-87
2023/10/27 07:19:35;;;;;;;0.20;0.20;;;;;;;;;;4903351;29;20417;-87
2023/10/27 07:22:01;;;;;;;0.10;0.10;;;;;;;;;;4905580;29;20111;-87
2023/10/27 07:24:30;;;;;;;0.10;0.10;;;;;;;;;;4905521;29;20047;-87
2023/10/27 07:26:56;;;;;;;0.28;0.28;;;;;;;;;;4905564;29;20036;-89
2023/10/27 07:29:22;;;;;;;0.10;0.10;;;;;;;;;;4905593;29;20461;-90
2023/10/27 07:31:48;;;;;;;0.45;0.45;;;;;;;;;;4905416;29;20044;-89
2023/10/27 07:34:14;;;;;;;0.45;0.17;;;;;;;;;;4905694;29;20043;-89
2023/10/27 07:36:40;;;;;;;0.10;0.10;;;;;;;;;;4890135;29;20048;-90
2023/10/27 07:39:07;;;;;;;0.10;0.10;;;;;;;;;;4905363;29;20385;-89
2023/10/27 07:41:34;;;;;;;0.10;0.10;;;;;;;;;;4905278;29;20075;-89
2023/10/27 07:44:00;;;;;;;0.10;0.10;;;;;;;;;;4889953;29;20040;-89
2023/10/27 07:46:26;;;;;;;0.10;0.10;;;;;;;;;;4921045;29;20118;-89
2023/10/27 07:48:52;;;;;;;0.20;0.20;;;;;;;;;;4905173;29;20154;-88
2023/10/27 07:51:18;;;;;;;0.30;0.30;;;;;;;;;;4921097;29;20055;-89
2023/10/27 07:53:44;;;;;;;0.40;0.40;;;;;;;;;;4920949;29;20501;-88
2023/10/27 07:56:10;;;;;;;0.10;0.10;;;;;;;;;;4905410;29;20131;-90
2023/10/27 07:58:36;;;;;;;0.15;0.15;;;;;;;;;;4889422;29;20044;-90
2023/10/27 08:01:05;;;;;;;0.25;0.25;;;;;;;;;;4889797;29;20067;-90
2023/10/27 08:03:31;;;;;;;0.10;0.10;;;;;;;;;;4889967;29;20481;-90
2023/10/27 08:05:57;;;;;;;0.10;0.10;;;;;;;;;;4905497;29;20043;-89
2023/10/27 08:08:23;;;;;;;0.17;0.17;;;;;;;;;;4889593;29;20566;-90
2023/10/27 08:10:49;;;;;;;0.10;0.10;;;;;;;;;;4904587;29;20047;-90
2023/10/27 08:13:16;;;;;;;0.10;0.10;;;;;;;;;;4904986;29;20126;-90
2023/10/27 08:15:43;;;;;;;0.20;0.20;;;;;;;;;;4889521;29;20044;-90
2023/10/27 08:18:10;;;;;;;0.10;0.10;;;;;;;;;;4920275;29;20064;-89
2023/10/27 08:20:36;;;;;;;0.10;0.10;;;;;;;;;;4889508;29;20051;-90
2023/10/27 08:23:03;;;;;;;0.10;0.10;;;;;;;;;;4889144;29;20074;-90
2023/10/27 08:25:28;;;;;;;1.00;0.88;;;;;;;;;;4889355;29;20132;-90
2023/10/27 08:27:55;;;;;;;0.10;0.10;;;;;;;;;;4905163;29;20094;-93
2023/10/27 08:30:21;;;;;;;0.10;0.10;;;;;;;;;;4890618;29;20571;-92
2023/10/27 08:32:47;;;;;;;0.10;0.10;;;;;;;;;;4920968;29;20131;-89
2023/10/27 08:35:13;;;;;;;0.10;0.10;;;;;;;;;;4907761;29;20056;-89
2023/10/27 08:37:39;;;;;;;0.10;0.10;;;;;;;;;;4901401;29;20051;-89
2023/10/27 08:40:09;;;;;;;0.10;0.10;;;;;;;;;;4911709;29;20071;-91
2023/10/27 08:42:36;;;;;;;0.17;0.17;;;;;;;;;;4904779;29;20397;-91
2023/10/27 08:45:02;;;;;;;0.10;0.10;;;;;;;;;;4888545;29;20531;-88
2023/10/27 08:47:33;;;;;;;0.10;0.10;;;;;;;;;;4919948;29;20515;-89
2023/10/27 08:50:01;;;;;;;0.10;0.10;;;;;;;;;;4888980;29;20044;-89
2023/10/27 08:52:27;;;;;;;0.10;0.10;;;;;;;;;;4904337;29;20051;-90
2023/10/27 08:54:53;;;;;;;0.10;0.10;;;;;;;;;;4904131;29;20401;-89
2023/10/27 08:57:21;;;;;;;0.10;0.10;;;;;;;;;;4903927;29;20048;-89
2023/10/27 08:59:47;;;;;;;0.10;0.10;;;;;;;;;;4903968;29;20073;-90
2023/10/27 09:02:14;;;;;;;0.10;0.10;;;;;;;;;;4919447;29;20082;-89
2023/10/27 09:04:43;;;;;;;0.10;0.10;;;;;;;;;;4904321;29;20551;-89
2023/10/27 09:07:09;;;;;;;0.20;0.20;;;;;;;;;;4904715;29;20108;-90
2023/10/27 09:09:35;;;;;;;0.17;0.17;;;;;;;;;;4904622;29;20527;-88
2023/10/27 09:12:01;;;;;;;1.25;0.38;;;;;;;;;;4903820;29;20040;-88
2023/10/27 09:14:30;;;;;;;0.20;0.20;;;;;;;;;;4904177;29;20046;-89
2023/10/27 09:17:06;;;;;;;0.10;0.10;;;;;;;;;;4903664;29;20059;-90
2023/10/27 09:19:32;;;;;;;0.30;0.30;;;;;;;;;;4919115;29;20056;-90
2023/10/27 09:21:58;;;;;;;0.30;0.17;;;;;;;;;;4903637;29;20135;-90
2023/10/27 09:24:25;;;;;;;0.10;0.10;;;;;;;;;;4903622;29;20035;-91
2023/10/27 09:26:51;;;;;;;0.15;0.15;;;;;;;;;;4888172;29;20098;-91
2023/10/27 09:29:18;;;;;;;0.20;0.20;;;;;;;;;;4887811;29;20040;-91
2023/10/27 09:31:44;;;;;;;0.20;0.20;;;;;;;;;;4888311;29;20048;-92
2023/10/27 09:34:15;;;;;;;0.10;0.10;;;;;;;;;;4887772;29;20130;-91
2023/10/27 09:36:41;;;;;;;0.10;0.10;;;;;;;;;;4903257;29;20039;-90
2023/10/27 09:39:09;;;;;;;0.10;0.10;;;;;;;;;;4903408;29;20035;-91
2023/10/27 09:41:34;;;;;;;0.20;0.20;;;;;;;;;;4902176;29;20087;-91
2023/10/27 09:44:00;;;;;;;0.10;0.10;;;;;;;;;;4888272;29;20083;-91
2023/10/27 09:46:26;;;;;;;0.15;0.15;;;;;;;;;;4887937;29;20040;-89
2023/10/27 09:48:58;;;;;;;0.30;0.20;;;;;;;;;;4903137;29;20050;-90
2023/10/27 09:51:24;;;;;;;0.20;0.20;;;;;;;;;;4904275;29;20047;-90
2023/10/27 09:53:50;;;;;;;0.20;0.20;;;;;;;;;;4903544;29;20058;-91
2023/10/27 09:56:17;;;;;;;0.20;0.20;;;;;;;;;;4903259;29;20070;-92
2023/10/27 09:58:43;;;;;;;0.10;0.10;;;;;;;;;;4887956;29;20047;-91
2023/10/27 10:01:10;;;;;;;0.10;0.10;;;;;;;;;;4903694;29;20058;-93
2023/10/27 10:03:40;;;;;;;0.10;0.10;;;;;;;;;;4903648;29;20446;-92
2023/10/27 10:06:17;;;;;;;0.38;0.20;;;;;;;;;;4903444;29;20046;-91
2023/10/27 10:09:04;;;;;;;0.10;0.10;;;;;;;;;;4903294;29;20159;-93
2023/10/27 10:11:35;;;;;;;0.10;0.10;;;;;;;;;;4920887;29;20115;-93
2023/10/27 10:14:01;;;;;;;0.20;0.20;;;;;;;;;;4887577;29;20143;-88
2023/10/27 10:16:28;;;;;;;0.32;0.32;;;;;;;;;;4902531;29;20094;-87
2023/10/27 10:18:55;;;;;;;0.10;0.10;;;;;;;;;;4902350;29;20056;-89
2023/10/27 10:21:39;;;;;;;0.10;0.10;;;;;;;;;;4902448;29;20043;-90
2023/10/27 10:24:05;;;;;;;0.10;0.10;;;;;;;;;;4918494;29;20043;-93
2023/10/27 10:26:50;;;;;;;0.10;0.10;;;;;;;;;;4887386;29;20159;-92
2023/10/27 10:29:28;;;;;;;0.20;0.20;;;;;;;;;;4918764;29;20312;-91
2023/10/27 10:32:14;;;;;;;0.10;0.10;;;;;;;;;;4887403;29;20039;-90
2023/10/27 10:34:40;;;;;;;0.17;0.17;;;;;;;;;;4902019;29;20051;-89
2023/10/27 10:37:25;;;;;;;0.10;0.10;;;;;;;;;;4902261;29;20044;-91
2023/10/27 10:40:10;;;;;;;0.10;0.10;;;;;;;;;;4902310;29;20043;-90
2023/10/27 10:42:56;;;;;;;0.20;0.20;;;;;;;;;;4916045;29;20086;-89
2023/10/27 10:45:22;;;;;;;0.20;0.20;;;;;;;;;;4934602;29;20506;-90
2023/10/27 10:47:48;;;;;;;0.38;0.30;;;;;;;;;;4886243;29;20134;-89
2023/10/27 10:50:14;;;;;;;0.20;0.20;;;;;;;;;;4917798;29;20106;-89
2023/10/27 10:52:40;;;;;;;0.30;0.30;;;;;;;;;;4901801;29;20048;-89
2023/10/27 10:55:09;;;;;;;0.20;0.20;;;;;;;;;;4920586;29;20054;-89
2023/10/27 10:57:35;;;;;;;0.20;0.20;;;;;;;;;;4906014;29;20048;-89
2023/10/27 11:00:01;;;;;;;0.20;0.20;;;;;;;;;;4921775;29;20052;-89
2023/10/27 11:02:27;;;;;;;0.10;0.10;;;;;;;;;;4903423;29;20142;-90
2023/10/27 11:04:53;;;;;;;0.30;0.30;;;;;;;;;;4906182;29;20062;-90
2023/10/27 11:07:20;;;;;;;0.50;0.50;;;;;;;;;;4902324;29;20044;-89
2023/10/27 11:09:46;;;;;;;0.13;0.13;;;;;;;;;;4886601;29;20151;-90
2023/10/27 11:12:28;;;;;;;0.20;0.20;;;;;;;;;;4910285;29;20043;-90
2023/10/27 11:14:54;;;;;;;0.20;0.20;;;;;;;;;;4887388;29;20047;-91
2023/10/27 11:17:20;;;;;;;0.10;0.10;;;;;;;;;;4898273;29;20064;-87
2023/10/27 11:19:52;;;;;;;0.20;0.20;;;;;;;;;;4938107;29;20468;-88
2023/10/27 11:22:22;;;;;;;0.17;0.17;;;;;;;;;;4920851;29;20063;-88
2023/10/27 11:24:48;;;;;;;0.10;0.10;;;;;;;;;;4920641;29;20044;-88
2023/10/27 11:27:26;;;;;;;0.10;0.10;;;;;;;;;;4905258;29;20040;-91
2023/10/27 11:30:02;;;;;;;0.20;0.20;;;;;;;;;;4890836;29;20069;-93
2023/10/27 11:32:28;;;;;;;0.20;0.20;;;;;;;;;;4905471;29;20393;-87
2023/10/27 11:34:57;;;;;;;0.10;0.10;;;;;;;;;;4888230;29;20461;-88
2023/10/27 11:37:23;;;;;;;0.10;0.10;;;;;;;;;;4905391;29;20075;-91
2023/10/27 11:39:50;;;;;;;0.10;0.10;;;;;;;;;;4905165;29;20079;-87
2023/10/27 11:42:16;;;;;;;0.15;0.15;;;;;;;;;;4920936;29;20048;-89
2023/10/27 11:44:44;;;;;;;0.20;0.20;;;;;;;;;;4889655;29;20122;-90
2023/10/27 11:47:10;;;;;;;0.50;0.20;;;;;;;;;;4920605;29;20043;-90
2023/10/27 11:49:36;;;;;;;0.47;0.20;;;;;;;;;;4905648;29;20149;-93
2023/10/27 11:52:03;;;;;;;0.10;0.10;;;;;;;;;;4908120;29;20043;-90
2023/10/27 11:54:29;;;;;;;0.10;0.10;;;;;;;;;;4905263;29;20396;-91
2023/10/27 11:56:55;;;;;;;0.20;0.20;;;;;;;;;;4905531;29;20043;-96
2023/10/27 11:59:29;;;;;;;0.28;0.28;;;;;;;;;;4904790;29;20107;-91
2023/10/27 12:01:55;;;;;;;0.20;0.20;;;;;;;;;;4887221;29;20039;-91
2023/10/27 12:04:22;;;;;;;0.10;0.10;;;;;;;;;;4885424;29;20052;-92
2023/10/27 12:06:52;;;;;;;0.10;0.10;;;;;;;;;;4904442;29;20548;-92
2023/10/27 12:09:18;;;;;;;0.20;0.20;;;;;;;;;;4921342;29;20055;-90
2023/10/27 12:11:45;;;;;;;0.10;0.10;;;;;;;;;;4920133;29;20241;-90
2023/10/27 12:14:10;;;;;;;0.13;0.13;;;;;;;;;;4919960;29;20466;-90
2023/10/27 12:16:36;;;;;;;0.17;0.17;;;;;;;;;;4919607;29;20102;-90
2023/10/27 12:19:02;;;;;;;0.17;0.17;;;;;;;;;;4920059;29;20048;-90
2023/10/27 12:21:28;;;;;;;0.17;0.17;;;;;;;;;;4935481;29;20039;-89
2023/10/27 12:23:54;;;;;;;0.10;0.10;;;;;;;;;;4920085;29;20303;-88
2023/10/27 12:26:21;;;;;;;0.10;0.10;;;;;;;;;;4919663;29;20127;-88
2023/10/27 12:28:47;;;;;;;0.10;0.10;;;;;;;;;;4905202;29;20417;-93
2023/10/27 12:31:16;;;;;;;0.10;0.10;;;;;;;;;;4904471;29;20452;-90
2023/10/27 12:33:43;;;;;;;0.10;0.10;;;;;;;;;;4920270;29;20048;-91
2023/10/27 12:36:09;;;;;;;0.10;0.10;;;;;;;;;;4904311;29;20115;-91
2023/10/27 12:38:35;;;;;;;0.10;0.10;;;;;;;;;;4909506;29;20493;-91
2023/10/27 12:41:01;;;;;;;0.10;0.10;;;;;;;;;;4888501;29;20090;-90
2023/10/27 12:43:29;;;;;;;0.20;0.20;;;;;;;;;;4888911;29;20047;-90
2023/10/27 12:45:55;;;;;;;0.52;0.25;;;;;;;;;;4903919;29;20051;-90
2023/10/27 12:48:22;;;;;;;0.47;0.47;;;;;;;;;;4903842;29;20043;-90
2023/10/27 12:50:48;;;;;;;0.10;0.10;;;;;;;;;;4888464;29;20050;-93
2023/10/27 12:53:14;;;;;;;0.10;0.10;;;;;;;;;;4899272;29;20048;-92
2023/10/27 12:55:40;;;;;;;0.20;0.20;;;;;;;;;;4912835;29;20131;-94
2023/10/27 12:58:09;;;;;;;0.10;0.10;;;;;;;;;;4885669;29;20047;-93
2023/10/27 13:00:35;;;;;;;0.10;0.10;;;;;;;;;;4885457;29;20038;-91
2023/10/27 13:03:01;;;;;;;0.10;0.10;;;;;;;;;;4888100;29;20556;-94
2023/10/27 13:05:27;;;;;;;0.25;0.25;;;;;;;;;;4896419;29;20040;-92
2023/10/27 13:07:54;;;;;;;0.10;0.10;;;;;;;;;;4889128;29;20047;-92
2023/10/27 13:10:22;;;;;;;0.10;0.10;;;;;;;;;;4890660;29;20046;-92
2023/10/27 13:12:49;;;;;;;0.20;0.20;;;;;;;;;;4903743;29;20044;-93
2023/10/27 13:15:15;;;;;;;0.10;0.10;;;;;;;;;;4888303;29;20039;-92
2023/10/27 13:17:41;;;;;;;0.17;0.17;;;;;;;;;;4887440;29;20051;-93
2023/10/27 13:20:09;;;;;;;0.10;0.10;;;;;;;;;;4888197;29;20048;-93
2023/10/27 13:22:35;;;;;;;0.20;0.20;;;;;;;;;;4888950;29;20040;-94
2023/10/27 13:25:02;;;;;;;0.20;0.20;;;;;;;;;;4918014;29;20048;-93
2023/10/27 13:27:30;;;;;;;0.82;0.28;;;;;;;;;;4887089;29;20134;-92
2023/10/27 13:30:07;;;;;;;0.10;0.10;;;;;;;;;;4888127;29;20050;-93
2023/10/27 13:32:33;;;;;;;0.10;0.10;;;;;;;;;;4870522;29;20088;-92
2023/10/27 13:34:59;;;;;;;0.25;0.25;;;;;;;;;;4885262;29;20249;-93
2023/10/27 13:37:27;;;;;;;0.10;0.10;;;;;;;;;;4884208;29;20048;-92
2023/10/27 13:39:55;;;;;;;0.30;0.30;;;;;;;;;;4869099;29;20044;-92
2023/10/27 13:42:21;;;;;;;0.25;0.25;;;;;;;;;;4886959;29;20485;-93
2023/10/27 13:44:48;;;;;;;0.35;0.30;;;;;;;;;;4903349;29;20047;-92
2023/10/27 13:47:21;;;;;;;0.10;0.10;;;;;;;;;;4890703;29;20055;-91
2023/10/27 13:49:52;;;;;;;0.10;0.10;;;;;;;;;;4887777;29;20401;-91
2023/10/27 13:52:19;;;;;;;0.10;0.10;;;;;;;;;;4903583;29;20104;-93
2023/10/27 13:54:48;;;;;;;0.10;0.10;;;;;;;;;;4888541;29;20480;-92
2023/10/27 13:57:14;;;;;;;0.30;0.30;;;;;;;;;;4887086;29;20043;-92
2023/10/27 13:59:40;;;;;;;0.10;0.10;;;;;;;;;;4887499;29;20049;-92
2023/10/27 14:02:06;;;;;;;0.10;0.10;;;;;;;;;;4887294;29;20039;-91
2023/10/27 14:04:32;;;;;;;0.10;0.10;;;;;;;;;;4887307;29;20114;-91
2023/10/27 14:06:58;;;;;;;0.10;0.10;;;;;;;;;;4886692;29;20051;-92
2023/10/27 14:09:29;;;;;;;0.20;0.20;;;;;;;;;;4902500;29;20044;-91
2023/10/27 14:11:56;;;;;;;0.10;0.10;;;;;;;;;;4887425;29;20476;-92
2023/10/27 14:14:23;;;;;;;0.10;0.10;;;;;;;;;;4887306;29;20050;-91
2023/10/27 14:16:49;;;;;;;0.10;0.10;;;;;;;;;;4887137;29;20059;-93
2023/10/27 14:19:17;;;;;;;0.10;0.10;;;;;;;;;;4886947;29;20108;-92
2023/10/27 14:21:45;;;;;;;0.10;0.10;;;;;;;;;;4886829;29;20397;-93
2023/10/27 14:24:11;;;;;;;0.10;0.10;;;;;;;;;;4887328;29;20099;-90
2023/10/27 14:26:37;;;;;;;0.22;0.22;;;;;;;;;;4887407;29;20047;-92
2023/10/27 14:29:07;;;;;;;0.20;0.20;;;;;;;;;;4902401;29;20055;-92
2023/10/27 14:31:33;;;;;;;0.15;0.15;;;;;;;;;;4887450;29;20122;-91
2023/10/27 14:33:59;;;;;;;0.30;0.30;;;;;;;;;;4886931;29;20099;-90
2023/10/27 14:36:25;;;;;;;0.10;0.10;;;;;;;;;;4886518;29;20492;-91
2023/10/27 14:38:51;;;;;;;0.10;0.10;;;;;;;;;;4902048;29;20142;-92
2023/10/27 14:41:36;;;;;;;0.10;0.10;;;;;;;;;;4891895;29;20047;-96